Abbott, NM

3:21 AM MDT on October 02, 2014 (GMT -0600)
Angel Fire | Change Station
CLOSE
Current Station
Airport
Location: Angel Fire,
Elevation: 8379 ft
Nearby Weather Stations
Active Advisory: Special Statement

Elev 8379 ft 36.42 °N, 105.29 °W | Updated 6 minutes ago

Partly Cloudy
Partly Cloudy
39 °F
Feels Like 35 °F
N
5
Wind Variable Wind from SSW

Today
High -- | Low -- °F
--% Chance of Precip.
Yesterday
High -- | Low -- °F
Precip. -- in
6:53 AM 6:39 PM
First Quarter, 57% visible
Pressure 30.11 in
Visibility 10.0 miles
Clouds Scattered Clouds 4900 ft
Scattered Clouds 5500 ft
Windchill 35 °F
Dew Point 30 °F
Humidity 71%
Rainfall 0.00 in
Snow Depth Not available.
UV 0 out of 12
Pollen 4.40 out of 12
Air Quality Not available.
Flu Activity Not available.
METAR KAXX 020915Z AUTO 20004KT 10SM SCT049 SCT055 04/M01 A3011 RMK AO2 T00381010

More Conditions Fewer Conditions

Pressure 30.11 in
Visibility 10.0 miles
Clouds Scattered Clouds 4900 ft
Scattered Clouds 5500 ft
Windchill 35 °F
Dew Point 30 °F
Humidity 71%
Rainfall 0.00 in
Snow Depth Not available.
UV 0 out of 12
Pollen 4.40 out of 12
Air Quality Not available.
Flu Activity Not available.
METAR KAXX 020915Z AUTO 20004KT 10SM SCT049 SCT055 04/M01 A3011 RMK AO2 T00381010

More Conditions Fewer Conditions

10-Day Weather Forecast

Almanac

Astronomy

Oct. 02, 2014 Rise Set
Actual Time 6:53 AM MDT 6:39 PM MDT
Civil Twilight 6:27 AM MDT 7:05 PM MDT
Nautical Twilight 5:57 AM MDT 7:34 PM MDT
Astronomical Twilight 5:27 AM MDT 8:04 PM MDT
Moon 2:38 PM MDT 12:22 AM MDT
Length of Visible Light 12h 37m
Length of Day
11h 45m
Tomorrow will be 2m 16s shorter.
First Quarter, 57% of the Moon is Illuminated
Today
First Quarter
Oct 8
Full
Oct 15
Last Quarter
Oct 23
New
Oct 30
First Quarter

Today's Extremes

State Highs State Lows

Community

WunderPhotos

Upload Photos

1,758,202 photos uploaded!

WunderBlogs® & News

By Dr. Jeff Masters
Director of Meteorology, Weather Underground
By Kari Strenfel
Meteorologist, Weather Underground
By Christopher C. Burt
Weather Historian, Weather Underground
October 2, 2014
October 2, 2014
October 2, 2014

Nearby

Snow Depth

Station Depth Elevation
Santa Fe 0 in 11445 ft
Elk Cabin 0 in 8210 ft
Signal Peak 1 in 8360 ft
Red River Pass #2 1 in 9850 ft
Bateman 0 in 9300 ft

Earthquake Activity

City Distance Mag. Time & Date
Trinidad, Colorado 56 miles 2.9 3:55 AM MDT
2014-09-30
Minimum magnitude displayed is 2.5.

Coastal Water Temperatures

Place Temperature
No Stations Reporting

Nearby Weather Stations